createdAt,value
2023-05-06T00:00:02.276Z,23.81
2023-05-06T00:00:12.236Z,23.78
2023-05-06T00:00:41.249Z,23.81
2023-05-06T00:00:52.232Z,23.79
2023-05-06T00:01:02.267Z,23.79
2023-05-06T00:01:12.238Z,23.79
2023-05-06T00:01:22.242Z,23.79
2023-05-06T00:01:32.229Z,23.79
2023-05-06T00:01:42.258Z,23.79
2023-05-06T00:02:01.240Z,23.79
2023-05-06T00:02:12.229Z,23.79
2023-05-06T00:02:22.358Z,23.81
2023-05-06T00:02:32.349Z,23.79
2023-05-06T00:02:42.338Z,23.79
2023-05-06T00:02:52.285Z,23.82
2023-05-06T00:03:02.318Z,23.81
2023-05-06T00:03:21.394Z,23.79
2023-05-06T00:03:32.336Z,23.82
2023-05-06T00:03:42.476Z,23.79
2023-05-06T00:03:52.446Z,23.82
2023-05-06T00:04:02.473Z,23.79
2023-05-06T00:04:12.254Z,23.81
2023-05-06T00:04:22.310Z,23.81
2023-05-06T00:04:42.314Z,23.79
2023-05-06T00:04:52.313Z,23.81
2023-05-06T00:05:02.228Z,23.79
2023-05-06T00:05:12.428Z,23.81
2023-05-06T00:06:50.265Z,23.81
2023-05-06T00:06:55.396Z,23.79
2023-05-06T00:07:05.442Z,23.77
2023-05-06T00:07:15.396Z,23.78
2023-05-06T00:07:25.434Z,23.79
2023-05-06T00:07:35.385Z,23.78
2023-05-06T00:07:55.492Z,23.78
2023-05-06T00:08:15.388Z,23.78
2023-05-06T00:08:25.417Z,23.84
2023-05-06T00:08:35.382Z,23.79
2023-05-06T00:08:45.430Z,23.81
2023-05-06T00:09:05.399Z,23.81
2023-05-06T00:09:15.392Z,23.81
2023-05-06T00:09:25.404Z,23.81
2023-05-06T00:09:35.376Z,23.81
2023-05-06T00:09:45.390Z,23.81
2023-05-06T00:09:55.382Z,23.79
2023-05-06T00:10:05.408Z,23.82
2023-05-06T00:10:25.388Z,23.79
2023-05-06T00:10:45.409Z,23.78
2023-05-06T00:10:55.409Z,23.84
2023-05-06T00:11:05.409Z,23.78
2023-05-06T00:11:15.379Z,23.81
2023-05-06T00:11:25.390Z,23.78
2023-05-06T00:11:35.377Z,23.78
2023-05-06T00:11:55.382Z,23.79
2023-05-06T00:12:05.383Z,23.79
2023-05-06T00:12:15.358Z,23.81
2023-05-06T00:12:25.390Z,23.78
2023-05-06T00:12:35.372Z,23.78
2023-05-06T00:12:45.391Z,23.78
2023-05-06T00:12:55.456Z,23.78
2023-05-06T00:13:14.490Z,23.79
2023-05-06T00:13:25.393Z,23.75
2023-05-06T00:13:35.367Z,23.79
2023-05-06T00:13:45.346Z,23.79
2023-05-06T00:13:55.367Z,23.77
2023-05-06T00:14:05.345Z,23.78
2023-05-06T00:14:15.376Z,23.78
2023-05-06T00:14:35.370Z,23.79
2023-05-06T00:14:45.334Z,23.75
2023-05-06T00:14:55.358Z,23.79
2023-05-06T00:15:05.350Z,23.77
2023-05-06T00:15:15.378Z,23.78
2023-05-06T00:15:25.349Z,23.79
2023-05-06T00:15:35.366Z,23.81
2023-05-06T00:15:55.365Z,23.78
2023-05-06T00:16:05.369Z,23.79
2023-05-06T00:16:15.399Z,23.78
2023-05-06T00:16:25.401Z,23.77
2023-05-06T00:16:35.398Z,23.78
2023-05-06T00:16:45.355Z,23.79
2023-05-06T00:17:05.336Z,23.77
2023-05-06T00:17:15.338Z,23.78
2023-05-06T00:17:25.347Z,23.79
2023-05-06T00:17:35.358Z,23.78
2023-05-06T00:17:45.378Z,23.79
2023-05-06T00:17:55.424Z,23.78
2023-05-06T00:18:15.345Z,23.79
2023-05-06T00:18:25.316Z,23.78
2023-05-06T00:18:35.332Z,23.79
2023-05-06T00:18:45.308Z,23.78
2023-05-06T00:18:55.355Z,23.78
2023-05-06T00:19:05.309Z,23.77
2023-05-06T00:19:15.342Z,23.77
2023-05-06T00:19:35.342Z,23.77
2023-05-06T00:19:45.309Z,23.78
2023-05-06T00:19:55.320Z,23.77
2023-05-06T00:20:05.334Z,23.77
2023-05-06T00:20:15.338Z,23.79
2023-05-06T00:20:25.301Z,23.78
2023-05-06T00:20:45.300Z,23.75
2023-05-06T00:20:55.333Z,23.77
2023-05-06T00:21:05.296Z,23.78
2023-05-06T00:21:15.309Z,23.79
2023-05-06T00:21:25.307Z,23.78
2023-05-06T00:21:35.328Z,23.77
2023-05-06T00:21:55.310Z,23.77
2023-05-06T00:22:05.295Z,23.77
2023-05-06T00:22:15.324Z,23.77
2023-05-06T00:22:25.297Z,23.78
2023-05-06T00:22:35.321Z,23.79
2023-05-06T00:22:45.289Z,23.78
2023-05-06T00:22:55.411Z,23.78
2023-05-06T00:23:15.306Z,23.79
2023-05-06T00:23:25.279Z,23.78
2023-05-06T00:23:35.298Z,23.78
2023-05-06T00:23:45.288Z,23.78
2023-05-06T00:23:55.299Z,23.77
2023-05-06T00:24:05.280Z,23.78
2023-05-06T00:24:15.315Z,23.79
2023-05-06T00:24:35.296Z,23.81
2023-05-06T00:24:45.289Z,23.77
2023-05-06T00:24:55.309Z,23.77
2023-05-06T00:25:05.290Z,23.77
2023-05-06T00:25:15.290Z,23.75
2023-05-06T00:25:25.290Z,23.78
2023-05-06T00:25:35.302Z,23.77
2023-05-06T00:25:55.298Z,23.77
2023-05-06T00:26:05.266Z,23.78
2023-05-06T00:26:15.296Z,23.75
2023-05-06T00:26:25.265Z,23.79
2023-05-06T00:26:35.296Z,23.77
2023-05-06T00:26:45.280Z,23.78
2023-05-06T00:27:05.252Z,23.79
2023-05-06T00:27:15.275Z,23.79
2023-05-06T00:27:25.253Z,23.79
2023-05-06T00:27:35.273Z,23.75
2023-05-06T00:27:45.251Z,23.79
2023-05-06T00:27:55.272Z,23.79
2023-05-06T00:28:14.286Z,23.78
2023-05-06T00:28:25.270Z,23.75
2023-05-06T00:28:35.303Z,23.77
2023-05-06T00:28:45.257Z,23.74
2023-05-06T00:28:55.288Z,23.79
2023-05-06T00:29:05.244Z,23.77
2023-05-06T00:29:15.283Z,23.78
2023-05-06T00:29:35.276Z,23.77
2023-05-06T00:29:45.251Z,23.77
2023-05-06T00:29:55.272Z,23.79
2023-05-06T00:30:05.242Z,23.77
2023-05-06T00:30:15.251Z,23.77
2023-05-06T00:30:25.237Z,23.75
2023-05-06T00:30:55.251Z,23.75
2023-05-06T00:31:05.235Z,23.77
2023-05-06T00:31:15.411Z,23.77
2023-05-06T00:31:25.295Z,23.78
2023-05-06T00:31:35.302Z,23.78
2023-05-06T00:31:45.429Z,23.77
2023-05-06T00:31:55.290Z,23.77
2023-05-06T00:32:15.242Z,23.77
2023-05-06T00:32:25.226Z,23.78
2023-05-06T00:32:35.313Z,23.77
2023-05-06T00:32:45.272Z,23.75
2023-05-06T00:32:55.288Z,23.78
2023-05-06T00:33:15.259Z,23.79
2023-05-06T00:33:35.234Z,23.78
2023-05-06T00:33:45.227Z,23.75
2023-05-06T00:33:55.229Z,23.79
2023-05-06T00:34:05.209Z,23.75
2023-05-06T00:34:15.237Z,23.77
2023-05-06T00:34:25.218Z,23.77
2023-05-06T00:34:45.216Z,23.77
2023-05-06T00:34:55.238Z,23.74
2023-05-06T00:35:05.214Z,23.77
2023-05-06T00:35:15.236Z,23.78
2023-05-06T00:35:25.207Z,23.78
2023-05-06T00:35:55.237Z,23.72
2023-05-06T00:36:05.223Z,23.78
2023-05-06T00:36:15.226Z,23.77
2023-05-06T00:36:25.191Z,23.75
2023-05-06T00:36:35.226Z,23.75
2023-05-06T00:36:45.197Z,23.77
2023-05-06T00:37:05.192Z,23.74
2023-05-06T00:37:15.228Z,23.75
2023-05-06T00:37:25.188Z,23.75
2023-05-06T00:37:35.219Z,23.77
2023-05-06T00:37:45.187Z,23.77
2023-05-06T00:37:55.208Z,23.78
2023-05-06T00:38:15.261Z,23.77
2023-05-06T00:38:25.182Z,23.78
2023-05-06T00:38:35.209Z,23.75
2023-05-06T00:38:45.184Z,23.78
2023-05-06T00:38:55.215Z,23.79
2023-05-06T00:39:05.179Z,23.77
2023-05-06T00:39:15.253Z,23.78
2023-05-06T00:39:34.203Z,23.77
2023-05-06T00:39:45.177Z,23.77
2023-05-06T00:39:55.205Z,23.79
2023-05-06T00:40:05.175Z,23.74
2023-05-06T00:40:15.193Z,23.74
2023-05-06T00:40:25.168Z,23.77
2023-05-06T00:40:35.199Z,23.77
2023-05-06T00:40:55.189Z,23.75
2023-05-06T00:41:05.169Z,23.78
2023-05-06T00:41:15.200Z,23.75
2023-05-06T00:41:25.161Z,23.77
2023-05-06T00:41:35.176Z,23.75
2023-05-06T00:41:45.159Z,23.78
2023-05-06T00:41:55.192Z,23.77
2023-05-06T00:42:14.185Z,23.75
2023-05-06T00:42:25.152Z,23.75
2023-05-06T00:42:35.167Z,23.74
2023-05-06T00:42:45.151Z,23.75
2023-05-06T00:42:55.181Z,23.75
2023-05-06T00:43:15.170Z,23.77
2023-05-06T00:43:25.154Z,23.74
2023-05-06T00:43:45.145Z,23.75
2023-05-06T00:43:55.175Z,23.77
2023-05-06T00:44:05.159Z,23.78
2023-05-06T00:44:15.180Z,23.75
2023-05-06T00:44:25.140Z,23.77
2023-05-06T00:44:35.160Z,23.75
2023-05-06T00:44:45.153Z,23.75
2023-05-06T00:45:04.132Z,23.77
2023-05-06T00:45:15.170Z,23.74
2023-05-06T00:45:25.135Z,23.77
2023-05-06T00:45:35.199Z,23.77
2023-05-06T00:45:55.180Z,23.75
2023-05-06T00:46:05.156Z,23.75
2023-05-06T00:46:15.244Z,23.75
2023-05-06T00:46:34.168Z,23.75
2023-05-06T00:46:45.127Z,23.75
2023-05-06T00:46:55.157Z,23.74
2023-05-06T00:47:05.127Z,23.77
2023-05-06T00:47:15.149Z,23.74
2023-05-06T00:47:25.121Z,23.77
2023-05-06T00:47:35.157Z,23.75
2023-05-06T00:48:05.174Z,23.75
2023-05-06T00:48:15.241Z,23.74
2023-05-06T00:48:25.120Z,23.75
2023-05-06T00:48:35.148Z,23.74
2023-05-06T00:48:45.116Z,23.74
2023-05-06T00:48:55.127Z,23.75
2023-05-06T00:49:15.143Z,23.77
2023-05-06T00:49:25.106Z,23.75
2023-05-06T00:49:35.147Z,23.74
2023-05-06T00:49:45.109Z,23.75
2023-05-06T00:49:55.125Z,23.74
2023-05-06T00:50:05.109Z,23.74
2023-05-06T00:50:34.136Z,23.77
2023-05-06T00:50:45.100Z,23.77
2023-05-06T00:50:55.113Z,23.75
2023-05-06T00:51:05.103Z,23.74
2023-05-06T00:51:15.123Z,23.74
2023-05-06T00:51:25.467Z,23.77
2023-05-06T00:51:35.110Z,23.75
2023-05-06T00:51:55.129Z,23.74
2023-05-06T00:52:05.089Z,23.74
2023-05-06T00:52:15.140Z,23.75
2023-05-06T00:52:25.089Z,23.74
2023-05-06T00:52:35.122Z,23.72
2023-05-06T00:52:45.103Z,23.74
2023-05-06T00:53:05.093Z,23.78
2023-05-06T00:53:15.108Z,23.74
2023-05-06T00:53:25.089Z,23.74
2023-05-06T00:53:35.109Z,23.74
2023-05-06T00:53:45.083Z,23.75
2023-05-06T00:53:55.110Z,23.75
2023-05-06T00:54:15.089Z,23.74
2023-05-06T00:54:25.076Z,23.75
2023-05-06T00:54:35.092Z,23.74
2023-05-06T00:54:45.084Z,23.74
2023-05-06T00:54:55.109Z,23.72
2023-05-06T00:55:05.071Z,23.75
2023-05-06T00:55:15.101Z,23.79
2023-05-06T00:55:25.098Z,23.74
2023-05-06T00:55:45.111Z,23.75
2023-05-06T00:55:55.063Z,23.74
2023-05-06T00:56:05.105Z,23.74
2023-05-06T00:56:15.065Z,23.75
2023-05-06T00:56:25.089Z,23.75
2023-05-06T00:56:35.064Z,23.75
2023-05-06T00:56:55.056Z,23.75
2023-05-06T00:57:05.074Z,23.77
2023-05-06T00:57:15.085Z,23.72
2023-05-06T00:57:25.070Z,23.72
2023-05-06T00:57:35.054Z,23.75
2023-05-06T00:57:45.082Z,23.75
2023-05-06T00:58:05.087Z,23.77
2023-05-06T00:58:15.048Z,23.75
2023-05-06T00:58:25.075Z,23.71
2023-05-06T00:58:35.067Z,23.74
2023-05-06T00:58:45.066Z,23.75
2023-05-06T00:58:55.056Z,23.74
2023-05-06T00:59:05.092Z,23.74
2023-05-06T00:59:25.074Z,23.72
2023-05-06T00:59:35.041Z,23.75
2023-05-06T00:59:45.059Z,23.72
2023-05-06T00:59:55.067Z,23.77
2023-05-06T01:00:05.053Z,23.74
2023-05-06T01:00:15.029Z,23.75
2023-05-06T01:00:45.098Z,23.78
2023-05-06T01:00:55.056Z,23.78
2023-05-06T01:01:05.095Z,23.77
2023-05-06T01:01:15.140Z,23.74
2023-05-06T01:01:25.128Z,23.72
2023-05-06T01:01:35.138Z,23.75
2023-05-06T01:01:55.070Z,23.74
2023-05-06T01:02:05.064Z,23.75
2023-05-06T01:02:15.032Z,23.75
2023-05-06T01:02:30.763Z,23.75
2023-05-06T01:02:47.920Z,23.74
2023-05-06T01:03:03.497Z,23.72
2023-05-06T01:03:13.497Z,23.74
2023-05-06T01:03:23.440Z,23.72
2023-05-06T01:03:33.476Z,23.78
2023-05-06T01:03:53.570Z,23.74
2023-05-06T01:04:03.453Z,23.74
2023-05-06T01:04:13.449Z,23.71
2023-05-06T01:04:23.389Z,23.74
2023-05-06T01:04:33.414Z,23.74
2023-05-06T01:04:43.421Z,23.75
2023-05-06T01:04:53.452Z,23.74
2023-05-06T01:05:03.461Z,23.75
2023-05-06T01:05:13.440Z,23.74
2023-05-06T01:05:33.401Z,23.72
2023-05-06T01:05:43.368Z,23.72
2023-05-06T01:05:53.402Z,23.71
2023-05-06T01:06:03.364Z,23.72
2023-05-06T01:06:13.395Z,23.74
2023-05-06T01:06:23.361Z,23.74
2023-05-06T01:06:33.409Z,23.72
2023-05-06T01:06:53.373Z,23.74
2023-05-06T01:07:03.354Z,23.77
2023-05-06T01:07:13.371Z,23.72
2023-05-06T01:07:23.355Z,23.75
2023-05-06T01:07:33.374Z,23.75
2023-05-06T01:07:43.373Z,23.71
2023-05-06T01:08:03.354Z,23.75
2023-05-06T01:08:13.390Z,23.72
2023-05-06T01:08:33.366Z,23.74
2023-05-06T01:08:43.344Z,23.77
2023-05-06T01:08:53.381Z,23.75
2023-05-06T01:09:13.385Z,23.74
2023-05-06T01:09:23.349Z,23.74
2023-05-06T01:09:33.384Z,23.72
2023-05-06T01:09:43.337Z,23.72
2023-05-06T01:09:53.375Z,23.74
2023-05-06T01:10:03.339Z,23.72
2023-05-06T01:10:13.387Z,23.75
2023-05-06T01:10:33.376Z,23.74
2023-05-06T01:10:53.355Z,23.74
2023-05-06T01:11:03.329Z,23.75
2023-05-06T01:11:15.608Z,23.74
2023-05-06T01:11:23.330Z,23.75
2023-05-06T01:11:42.328Z,23.74
2023-05-06T01:11:53.349Z,23.74
2023-05-06T01:12:03.323Z,23.75
2023-05-06T01:12:13.369Z,23.74
2023-05-06T01:12:23.325Z,23.77
2023-05-06T01:12:33.368Z,23.75
2023-05-06T01:12:43.334Z,23.75
2023-05-06T01:12:53.376Z,23.74
2023-05-06T01:13:22.358Z,23.72
2023-05-06T01:13:33.347Z,23.71
2023-05-06T01:13:43.314Z,23.74
2023-05-06T01:13:53.349Z,23.72
2023-05-06T01:14:03.315Z,23.72
2023-05-06T01:14:13.344Z,23.75
2023-05-06T01:14:23.321Z,23.72
2023-05-06T01:14:33.373Z,23.72
2023-05-06T01:14:53.327Z,23.71
2023-05-06T01:15:03.318Z,23.74
2023-05-06T01:15:13.339Z,23.72
2023-05-06T01:15:23.319Z,23.72
2023-05-06T01:15:33.334Z,23.72
2023-05-06T01:15:53.345Z,23.74
2023-05-06T01:16:12.311Z,23.72
2023-05-06T01:16:23.317Z,23.69
2023-05-06T01:16:33.367Z,23.72
2023-05-06T01:16:43.296Z,23.72
2023-05-06T01:16:53.345Z,23.72
2023-05-06T01:17:03.387Z,23.72
2023-05-06T01:17:13.331Z,23.75
2023-05-06T01:17:33.330Z,23.72
2023-05-06T01:17:43.290Z,23.72
2023-05-06T01:17:53.361Z,23.72
2023-05-06T01:18:03.344Z,23.74
2023-05-06T01:18:13.320Z,23.72
2023-05-06T01:18:42.276Z,23.75
2023-05-06T01:18:53.322Z,23.72
2023-05-06T01:19:03.287Z,23.75
2023-05-06T01:19:13.290Z,23.72
2023-05-06T01:19:23.275Z,23.77
2023-05-06T01:19:33.324Z,23.71
2023-05-06T01:19:43.272Z,23.72
2023-05-06T01:20:03.275Z,23.75
2023-05-06T01:20:13.314Z,23.71
2023-05-06T01:20:23.404Z,23.72
2023-05-06T01:20:33.317Z,23.74
2023-05-06T01:20:52.296Z,23.72
2023-05-06T01:21:03.285Z,23.72
2023-05-06T01:21:22.300Z,23.72
2023-05-06T01:21:33.294Z,23.72
2023-05-06T01:21:43.260Z,23.72
2023-05-06T01:21:53.291Z,23.72
2023-05-06T01:22:03.266Z,23.74
2023-05-06T01:22:13.297Z,23.72
2023-05-06T01:22:23.261Z,23.71
2023-05-06T01:22:42.293Z,23.74
2023-05-06T01:22:53.282Z,23.69
2023-05-06T01:23:03.254Z,23.71
2023-05-06T01:23:13.306Z,23.74
2023-05-06T01:23:33.263Z,23.74
2023-05-06T01:23:43.249Z,23.74
2023-05-06T01:24:03.245Z,23.71
2023-05-06T01:24:13.271Z,23.71
2023-05-06T01:24:23.246Z,23.69
2023-05-06T01:24:33.254Z,23.71
2023-05-06T01:24:43.260Z,23.72
2023-05-06T01:24:53.273Z,23.72
2023-05-06T01:25:13.271Z,23.69
2023-05-06T01:25:23.257Z,23.69
2023-05-06T01:25:33.249Z,23.69
2023-05-06T01:25:53.274Z,23.71
2023-05-06T01:26:03.243Z,23.72
2023-05-06T01:26:13.282Z,23.72
2023-05-06T01:26:33.247Z,23.71
2023-05-06T01:26:43.230Z,23.71
2023-05-06T01:26:53.238Z,23.74
2023-05-06T01:27:03.236Z,23.69
2023-05-06T01:27:13.264Z,23.69
2023-05-06T01:27:23.225Z,23.74
2023-05-06T01:27:43.228Z,23.69
2023-05-06T01:27:53.241Z,23.72
2023-05-06T01:28:03.217Z,23.72
2023-05-06T01:28:23.213Z,23.72
2023-05-06T01:28:33.247Z,23.72
2023-05-06T01:28:53.245Z,23.72
2023-05-06T01:29:03.290Z,23.71
2023-05-06T01:29:13.253Z,23.71
2023-05-06T01:29:23.206Z,23.69
2023-05-06T01:29:33.250Z,23.71
2023-05-06T01:29:43.214Z,23.72
2023-05-06T01:30:02.197Z,23.71
2023-05-06T01:30:13.236Z,23.71
2023-05-06T01:30:23.206Z,23.71
2023-05-06T01:30:33.218Z,23.72
2023-05-06T01:30:43.204Z,23.72
2023-05-06T01:31:02.230Z,23.69
2023-05-06T01:31:23.281Z,23.74
2023-05-06T01:31:33.284Z,23.71
2023-05-06T01:31:43.226Z,23.69
2023-05-06T01:31:53.224Z,23.69
2023-05-06T01:32:03.194Z,23.69
2023-05-06T01:32:13.209Z,23.68
2023-05-06T01:32:33.279Z,23.72
2023-05-06T01:32:43.210Z,23.74
2023-05-06T01:32:53.265Z,23.69
2023-05-06T01:33:03.233Z,23.71
2023-05-06T01:33:13.231Z,23.71
2023-05-06T01:33:23.190Z,23.74
2023-05-06T01:33:33.223Z,23.71
2023-05-06T01:33:53.193Z,23.69
2023-05-06T01:34:03.179Z,23.69
2023-05-06T01:34:13.206Z,23.71
2023-05-06T01:34:23.175Z,23.71
2023-05-06T01:34:33.208Z,23.69
2023-05-06T01:34:43.181Z,23.71
2023-05-06T01:34:53.205Z,23.72
2023-05-06T01:35:12.180Z,23.68
2023-05-06T01:35:23.168Z,23.72
2023-05-06T01:35:33.226Z,23.71
2023-05-06T01:35:43.169Z,23.71
2023-05-06T01:35:53.205Z,23.71
2023-05-06T01:36:03.165Z,23.71
2023-05-06T01:36:13.186Z,23.68
2023-05-06T01:36:33.179Z,23.72
2023-05-06T01:36:43.165Z,23.69
2023-05-06T01:36:53.175Z,23.72
2023-05-06T01:37:03.159Z,23.71
2023-05-06T01:37:13.197Z,23.71
2023-05-06T01:37:23.166Z,23.69
2023-05-06T01:37:33.188Z,23.69
2023-05-06T01:37:53.170Z,23.69
2023-05-06T01:38:03.154Z,23.69
2023-05-06T01:38:13.169Z,23.69
2023-05-06T01:38:23.165Z,23.69
2023-05-06T01:38:33.147Z,23.71
2023-05-06T01:38:43.165Z,23.71
2023-05-06T01:39:02.194Z,23.69
2023-05-06T01:39:23.175Z,23.68
2023-05-06T01:39:33.141Z,23.71
2023-05-06T01:39:43.158Z,23.67
2023-05-06T01:39:53.136Z,23.69
2023-05-06T01:40:03.165Z,23.69
2023-05-06T01:40:13.136Z,23.71
2023-05-06T01:40:33.134Z,23.72
2023-05-06T01:40:43.164Z,23.72
2023-05-06T01:40:53.132Z,23.71
2023-05-06T01:41:03.187Z,23.69
2023-05-06T01:41:13.143Z,23.69
2023-05-06T01:41:23.163Z,23.71
2023-05-06T01:41:43.195Z,23.69
2023-05-06T01:42:03.150Z,23.69
2023-05-06T01:42:13.132Z,23.71
2023-05-06T01:42:23.154Z,23.71
2023-05-06T01:42:33.121Z,23.71
2023-05-06T01:42:43.155Z,23.71
2023-05-06T01:42:53.126Z,23.69
2023-05-06T01:43:03.149Z,23.71
2023-05-06T01:43:22.133Z,23.69
2023-05-06T01:43:33.112Z,23.69
2023-05-06T01:43:43.132Z,23.69
2023-05-06T01:43:53.113Z,23.68
2023-05-06T01:44:03.133Z,23.71
2023-05-06T01:44:23.154Z,23.69
2023-05-06T01:44:43.137Z,23.69
2023-05-06T01:44:53.105Z,23.71
2023-05-06T01:45:03.140Z,23.71
2023-05-06T01:45:13.102Z,23.71
2023-05-06T01:45:23.133Z,23.69
2023-05-06T01:45:33.099Z,23.69
2023-05-06T01:45:52.106Z,23.69
2023-05-06T01:46:03.230Z,23.68
2023-05-06T01:46:13.129Z,23.71
2023-05-06T01:46:23.190Z,23.72
2023-05-06T01:46:33.134Z,23.68
2023-05-06T01:46:53.095Z,23.69
2023-05-06T01:47:13.094Z,23.68
2023-05-06T01:47:23.136Z,23.71
2023-05-06T01:47:33.113Z,23.71
2023-05-06T01:47:43.147Z,23.69
2023-05-06T01:47:53.153Z,23.71
2023-05-06T01:48:03.146Z,23.69
2023-05-06T01:48:23.100Z,23.72
2023-05-06T01:48:33.086Z,23.69
2023-05-06T01:48:43.111Z,23.69
2023-05-06T01:48:53.088Z,23.68
2023-05-06T01:49:03.098Z,23.72
2023-05-06T01:49:23.111Z,23.69
2023-05-06T01:49:43.106Z,23.69
2023-05-06T01:49:53.071Z,23.69
2023-05-06T01:50:03.087Z,23.71
2023-05-06T01:50:13.067Z,23.71
2023-05-06T01:50:23.118Z,23.69
2023-05-06T01:50:33.067Z,23.68
2023-05-06T01:50:53.063Z,23.71
2023-05-06T01:51:03.104Z,23.69
2023-05-06T01:51:13.068Z,23.68
2023-05-06T01:51:23.094Z,23.68
2023-05-06T01:51:33.063Z,23.69
2023-05-06T01:52:03.085Z,23.68
2023-05-06T01:52:13.058Z,23.69
2023-05-06T01:52:23.074Z,23.67
2023-05-06T01:52:33.056Z,23.67
2023-05-06T01:52:43.069Z,23.69
2023-05-06T01:52:53.076Z,23.71
2023-05-06T01:53:03.084Z,23.69
2023-05-06T01:53:23.079Z,23.68
2023-05-06T01:53:33.049Z,23.69
2023-05-06T01:53:43.078Z,23.69
2023-05-06T01:53:53.045Z,23.68
2023-05-06T01:54:03.089Z,23.69
2023-05-06T01:54:33.035Z,23.72
2023-05-06T01:54:43.060Z,23.67
2023-05-06T01:54:53.037Z,23.68
2023-05-06T01:55:03.070Z,23.71
2023-05-06T01:55:13.044Z,23.72
2023-05-06T01:55:23.067Z,23.68
2023-05-06T01:55:33.034Z,23.68
2023-05-06T01:55:43.068Z,23.68
2023-05-06T01:55:53.043Z,23.71
2023-05-06T01:56:13.032Z,23.71
2023-05-06T01:56:23.042Z,23.68
2023-05-06T01:56:43.061Z,23.67
2023-05-06T01:56:53.022Z,23.71
2023-05-06T01:57:03.040Z,23.68
2023-05-06T01:57:23.057Z,23.68
2023-05-06T01:57:33.022Z,23.69
2023-05-06T01:57:43.051Z,23.68
2023-05-06T01:57:53.027Z,23.67
2023-05-06T01:58:03.049Z,23.68
2023-05-06T01:58:13.011Z,23.69
2023-05-06T01:58:33.027Z,23.71
2023-05-06T01:58:43.055Z,23.67
2023-05-06T01:58:53.008Z,23.68
2023-05-06T01:59:03.047Z,23.71
2023-05-06T01:59:23.066Z,23.67
2023-05-06T01:59:43.022Z,23.68
2023-05-06T01:59:53.001Z,23.72
2023-05-06T02:00:03.023Z,23.68
2023-05-06T02:00:13.005Z,23.68
2023-05-06T02:00:23.017Z,23.67
2023-05-06T02:00:32.999Z,23.69
2023-05-06T02:00:51.995Z,23.68
2023-05-06T02:01:03.011Z,23.64
2023-05-06T02:01:13.019Z,23.67
2023-05-06T02:01:23.086Z,23.68
2023-05-06T02:01:42.021Z,23.69
2023-05-06T02:01:53.014Z,23.69
2023-05-06T02:02:11.988Z,23.69
2023-05-06T02:02:23.068Z,23.68
2023-05-06T02:02:33.043Z,23.67
2023-05-06T02:02:43.173Z,23.69
2023-05-06T02:02:53.142Z,23.68
2023-05-06T02:03:03.084Z,23.68
2023-05-06T02:03:13.065Z,23.69
2023-05-06T02:03:33.020Z,23.69
2023-05-06T02:03:43.092Z,23.68
2023-05-06T02:04:03.153Z,23.68
2023-05-06T02:04:12.981Z,23.67
2023-05-06T02:04:22.990Z,23.68
2023-05-06T02:04:32.975Z,23.67
2023-05-06T02:04:52.971Z,23.68
2023-05-06T02:05:03.009Z,23.67
2023-05-06T02:05:12.965Z,23.64
2023-05-06T02:05:22.999Z,23.67
2023-05-06T02:05:32.965Z,23.68
2023-05-06T02:05:43.012Z,23.68
2023-05-06T02:06:01.974Z,23.71
2023-05-06T02:06:12.958Z,23.64
2023-05-06T02:06:23.021Z,23.67
2023-05-06T02:06:32.970Z,23.64
2023-05-06T02:06:52.967Z,23.68
2023-05-06T02:07:02.979Z,23.68
2023-05-06T02:07:22.989Z,23.71
2023-05-06T02:07:32.965Z,23.68
2023-05-06T02:07:42.972Z,23.67
2023-05-06T02:07:52.947Z,23.68
2023-05-06T02:08:02.985Z,23.67
2023-05-06T02:08:12.956Z,23.69
2023-05-06T02:08:32.945Z,23.67
2023-05-06T02:08:42.964Z,23.69
2023-05-06T02:09:02.959Z,23.67
2023-05-06T02:09:12.948Z,23.67
2023-05-06T02:09:22.973Z,23.68
2023-05-06T02:09:42.053Z,23.63
2023-05-06T02:09:52.945Z,23.67
2023-05-06T02:10:02.978Z,23.69
2023-05-06T02:10:12.951Z,23.67
2023-05-06T02:10:22.977Z,23.67
2023-05-06T02:10:32.948Z,23.67
2023-05-06T02:10:42.953Z,23.64
2023-05-06T02:11:02.947Z,23.68
2023-05-06T02:11:12.932Z,23.67
2023-05-06T02:11:32.924Z,23.68
2023-05-06T02:11:42.939Z,23.64
2023-05-06T02:11:52.926Z,23.69
2023-05-06T02:12:12.929Z,23.68
2023-05-06T02:12:22.982Z,23.68
2023-05-06T02:12:32.953Z,23.64
2023-05-06T02:12:43.008Z,23.68
2023-05-06T02:12:52.981Z,23.67
2023-05-06T02:13:02.971Z,23.68
2023-05-06T02:13:23.028Z,23.68
2023-05-06T02:13:32.912Z,23.67
2023-05-06T02:13:52.967Z,23.67
2023-05-06T02:14:02.965Z,23.68
2023-05-06T02:14:12.905Z,23.68
2023-05-06T02:14:32.903Z,23.67
2023-05-06T02:14:42.956Z,23.68
2023-05-06T02:14:52.906Z,23.68
2023-05-06T02:15:02.934Z,23.68
2023-05-06T02:15:12.903Z,23.64
2023-05-06T02:15:22.926Z,23.64
2023-05-06T02:15:42.966Z,23.67
2023-05-06T02:15:52.960Z,23.69
2023-05-06T02:16:02.952Z,23.67
2023-05-06T02:16:22.054Z,23.64
2023-05-06T02:16:33.015Z,23.67
2023-05-06T02:16:52.890Z,23.67
2023-05-06T02:17:02.904Z,23.67
2023-05-06T02:17:12.885Z,23.67
2023-05-06T02:17:22.942Z,23.67
2023-05-06T02:17:32.896Z,23.68
2023-05-06T02:17:42.964Z,23.67
2023-05-06T02:18:02.939Z,23.64
2023-05-06T02:18:12.880Z,23.64
2023-05-06T02:18:22.920Z,23.67
2023-05-06T02:18:32.899Z,23.64
2023-05-06T02:18:52.879Z,23.67
2023-05-06T02:19:02.926Z,23.64
2023-05-06T02:19:21.934Z,23.67
2023-05-06T02:19:32.875Z,23.67
2023-05-06T02:19:42.899Z,23.67
2023-05-06T02:19:52.884Z,23.68
2023-05-06T02:20:02.893Z,23.71
2023-05-06T02:20:12.890Z,23.68
2023-05-06T02:20:22.913Z,23.67
2023-05-06T02:20:42.923Z,23.64
2023-05-06T02:20:52.889Z,23.64
2023-05-06T02:21:12.895Z,23.68
2023-05-06T02:21:22.875Z,23.68
2023-05-06T02:21:32.894Z,23.64
2023-05-06T02:21:52.872Z,23.63
2023-05-06T02:22:02.858Z,23.68
2023-05-06T02:22:12.890Z,23.67
2023-05-06T02:22:22.870Z,23.64
2023-05-06T02:22:32.881Z,23.67
2023-05-06T02:22:42.858Z,23.67
2023-05-06T02:23:01.845Z,23.63
2023-05-06T02:23:12.884Z,23.67
2023-05-06T02:23:22.848Z,23.67
2023-05-06T02:23:42.862Z,23.64
2023-05-06T02:23:52.861Z,23.67
2023-05-06T02:24:02.845Z,23.62
2023-05-06T02:24:22.834Z,23.67
2023-05-06T02:24:32.852Z,23.67
2023-05-06T02:24:42.833Z,23.67
2023-05-06T02:24:52.857Z,23.64
2023-05-06T02:25:02.843Z,23.64
2023-05-06T02:25:12.866Z,23.64
2023-05-06T02:25:31.861Z,23.67
2023-05-06T02:25:42.840Z,23.68
2023-05-06T02:25:52.865Z,23.64
2023-05-06T02:26:02.850Z,23.64
2023-05-06T02:26:22.829Z,23.64
2023-05-06T02:26:32.856Z,23.63
2023-05-06T02:26:42.832Z,23.67
2023-05-06T02:27:02.830Z,23.67
2023-05-06T02:27:12.845Z,23.63
2023-05-06T02:27:22.827Z,23.68
2023-05-06T02:27:32.850Z,23.67
2023-05-06T02:27:42.815Z,23.67
2023-05-06T02:27:52.855Z,23.64
2023-05-06T02:28:02.817Z,23.64
2023-05-06T02:28:12.945Z,23.64
2023-05-06T02:28:22.859Z,23.64
2023-05-06T02:28:42.820Z,23.62
2023-05-06T02:28:52.874Z,23.62
2023-05-06T02:29:02.808Z,23.64
2023-05-06T02:29:12.838Z,23.64
2023-05-06T02:29:22.805Z,23.67
2023-05-06T02:29:32.821Z,23.64
2023-05-06T02:29:52.835Z,23.63
2023-05-06T02:30:02.812Z,23.68
2023-05-06T02:30:12.834Z,23.63
2023-05-06T02:30:22.798Z,23.67
2023-05-06T02:30:32.860Z,23.67
2023-05-06T02:30:42.813Z,23.67
2023-05-06T02:31:11.826Z,23.64
2023-05-06T02:31:22.871Z,23.64
2023-05-06T02:31:32.834Z,23.64
2023-05-06T02:31:42.841Z,23.67
2023-05-06T02:31:52.916Z,23.64
2023-05-06T02:32:02.820Z,23.63
2023-05-06T02:32:12.831Z,23.64
2023-05-06T02:32:32.855Z,23.64
2023-05-06T02:32:42.956Z,23.67
2023-05-06T02:32:52.825Z,23.63
2023-05-06T02:33:02.837Z,23.67
2023-05-06T02:33:12.800Z,23.64
2023-05-06T02:33:22.774Z,23.68
2023-05-06T02:33:32.808Z,23.67
2023-05-06T02:33:52.794Z,23.64
2023-05-06T02:34:02.776Z,23.67
2023-05-06T02:34:12.807Z,23.63
2023-05-06T02:34:22.772Z,23.64
2023-05-06T02:34:32.790Z,23.64
2023-05-06T02:34:42.849Z,23.63
2023-05-06T02:35:02.783Z,23.67
2023-05-06T02:35:12.790Z,23.67
2023-05-06T02:35:22.770Z,23.67
2023-05-06T02:35:32.798Z,23.64
2023-05-06T02:35:42.821Z,23.63
2023-05-06T02:35:52.782Z,23.67
2023-05-06T02:36:12.774Z,23.64
2023-05-06T02:36:22.764Z,23.63
2023-05-06T02:36:32.790Z,23.67
2023-05-06T02:36:42.806Z,23.64
2023-05-06T02:36:52.788Z,23.63
2023-05-06T02:37:02.762Z,23.64
2023-05-06T02:37:22.757Z,23.67
2023-05-06T02:37:32.806Z,23.64